Time;durP1;ratioP1;P1;durP2;ratioP2;P2;SDS_P1;SDS_P2;PMS_P1;PMS_P2;Temp;Humidity;BMP_temperature;BMP_pressure;BME280_temperature;BME280_humidity;BME280_pressure;Samples;Min_cycle;Max_cycle;Signal;HPM_P1;HPM_P2
2022/07/04 00:00:23;;;;;;;9.88;2.33;;;;;;;24.51;37.95;99356.69;5075394;28;20151;-71
2022/07/04 00:02:50;;;;;;;8.57;2.67;;;;;;;24.56;37.85;99359.59;5066594;28;20123;-72
2022/07/04 00:05:17;;;;;;;6.60;3.70;;;;;;;24.58;37.69;99365.63;5055342;28;20033;-72
2022/07/04 00:07:45;;;;;;;9.65;2.85;;;;;;;24.53;37.48;99368.13;5073038;28;20044;-72
2022/07/04 00:10:12;;;;;;;5.95;2.78;;;;;;;24.46;38.00;99361.94;5074646;28;20048;-71
2022/07/04 00:12:37;;;;;;;4.00;2.50;;;;;;;24.40;37.85;99360.09;5072983;28;20032;-72
2022/07/04 00:15:05;;;;;;;6.43;2.78;;;;;;;24.38;38.09;99365.72;5074096;28;20037;-71
2022/07/04 00:17:31;;;;;;;5.15;2.42;;;;;;;24.36;38.15;99362.41;5074853;28;20101;-72
2022/07/04 00:19:56;;;;;;;4.20;2.72;;;;;;;24.29;38.18;99357.03;5075096;28;20133;-72
2022/07/04 00:22:22;;;;;;;5.00;2.58;;;;;;;24.27;38.01;99356.41;5075134;28;20493;-72
2022/07/04 00:24:47;;;;;;;4.82;2.60;;;;;;;24.26;38.21;99357.47;5074915;28;20036;-70
2022/07/04 00:27:13;;;;;;;3.70;2.70;;;;;;;24.22;38.19;99358.91;5073706;28;20479;-71
2022/07/04 00:29:38;;;;;;;8.93;2.83;;;;;;;24.21;38.90;99359.97;5072587;28;20119;-69
2022/07/04 00:32:04;;;;;;;7.40;3.10;;;;;;;24.12;39.46;99359.38;5074985;28;20033;-69
2022/07/04 00:34:30;;;;;;;4.70;2.70;;;;;;;24.11;39.84;99362.31;5073811;28;20032;-69
2022/07/04 00:36:55;;;;;;;4.07;2.28;;;;;;;24.16;39.75;99357.09;5074432;28;20415;-67
2022/07/04 00:39:21;;;;;;;4.40;2.10;;;;;;;24.15;40.13;99364.34;5071524;28;20082;-68
2022/07/04 00:41:47;;;;;;;6.50;3.05;;;;;;;24.15;40.20;99368.94;5073724;28;20530;-69
2022/07/04 00:44:15;;;;;;;6.63;2.83;;;;;;;24.15;40.41;99358.94;5072595;28;20488;-66
2022/07/04 00:46:42;;;;;;;6.95;2.80;;;;;;;24.18;40.51;99360.41;5074758;28;20032;-68
2022/07/04 00:49:08;;;;;;;5.47;2.60;;;;;;;24.20;40.44;99371.81;5074971;28;20029;-68
2022/07/04 00:51:34;;;;;;;6.03;2.83;;;;;;;24.25;40.06;99371.19;5074809;28;20112;-68
2022/07/04 00:54:00;;;;;;;5.30;2.40;;;;;;;24.27;40.26;99364.53;5074433;28;20064;-69
2022/07/04 00:56:26;;;;;;;5.53;2.50;;;;;;;24.24;40.56;99359.53;5073996;28;20123;-69
2022/07/04 00:58:53;;;;;;;5.43;3.55;;;;;;;24.21;40.42;99357.25;5072125;28;20123;-70
2022/07/04 01:01:19;;;;;;;4.70;2.20;;;;;;;24.20;40.75;99371.81;5074645;28;20111;-71
2022/07/04 01:03:45;;;;;;;5.60;2.70;;;;;;;24.18;40.54;99368.53;5072995;28;20446;-68
2022/07/04 01:06:12;;;;;;;4.32;2.35;;;;;;;24.12;40.68;99378.28;5073478;28;20047;-68
2022/07/04 01:08:40;;;;;;;7.68;2.47;;;;;;;24.05;40.89;99374.81;5073179;28;20035;-69
2022/07/04 01:11:06;;;;;;;7.50;2.85;;;;;;;23.99;41.18;99379.19;5073556;28;20040;-67
2022/07/04 01:13:31;;;;;;;5.05;3.20;;;;;;;23.93;41.28;99374.59;5066206;28;20028;-70
2022/07/04 01:15:57;;;;;;;6.65;2.97;;;;;;;23.89;41.03;99378.78;5072219;28;20120;-69
2022/07/04 01:18:22;;;;;;;5.45;3.22;;;;;;;23.83;41.41;99375.03;5073519;28;20056;-69
2022/07/04 01:20:48;;;;;;;11.00;3.45;;;;;;;23.78;41.16;99381.06;5073809;28;20048;-69
2022/07/04 01:23:13;;;;;;;7.07;3.03;;;;;;;23.75;41.55;99384.19;5073258;28;20119;-68
2022/07/04 01:25:39;;;;;;;5.60;3.10;;;;;;;23.75;41.50;99384.19;5074220;28;20047;-68
2022/07/04 01:28:06;;;;;;;8.90;3.78;;;;;;;23.74;41.22;99377.16;5073684;28;20069;-68
2022/07/04 01:30:33;;;;;;;6.47;3.42;;;;;;;23.72;41.45;99383.78;5071890;28;20131;-69
2022/07/04 01:32:58;;;;;;;7.03;3.20;;;;;;;23.70;41.68;99381.31;5073183;28;20036;-69
2022/07/04 01:35:24;;;;;;;8.57;2.95;;;;;;;23.65;41.70;99383.81;5073985;28;20077;-68
2022/07/04 01:37:50;;;;;;;8.18;3.15;;;;;;;23.65;41.58;99381.09;5073190;28;20119;-69
2022/07/04 01:40:16;;;;;;;6.72;3.40;;;;;;;23.68;41.61;99380.69;5053633;28;20032;-69
2022/07/04 01:42:42;;;;;;;4.50;3.20;;;;;;;23.69;41.75;99387.75;5071229;28;20032;-69
2022/07/04 01:45:09;;;;;;;11.30;3.75;;;;;;;23.71;41.92;99388.38;5071705;28;21710;-69
2022/07/04 01:47:36;;;;;;;6.28;3.35;;;;;;;23.67;41.60;99389.00;5073270;28;20032;-70
2022/07/04 01:50:03;;;;;;;7.85;3.53;;;;;;;23.63;41.71;99380.47;5073579;28;20095;-70
2022/07/04 01:52:28;;;;;;;6.28;3.22;;;;;;;23.62;41.80;99385.06;5073248;28;20036;-70
2022/07/04 01:54:54;;;;;;;4.22;3.00;;;;;;;23.58;42.03;99388.41;5073612;28;20035;-70
2022/07/04 01:57:19;;;;;;;6.13;3.10;;;;;;;23.59;41.71;99390.06;5073369;28;20557;-70
2022/07/04 02:02:29;;;;;;;4.45;2.70;;;;;;;23.58;41.76;99388.41;5070366;28;20174;-69
2022/07/04 02:04:54;;;;;;;5.40;3.13;;;;;;;23.57;42.26;99392.97;5055462;28;20467;-70
2022/07/04 02:07:20;;;;;;;10.70;3.85;;;;;;;23.56;42.16;99394.00;5053172;28;20443;-70
2022/07/04 02:09:45;;;;;;;6.55;3.35;;;;;;;23.57;41.87;99392.97;5063392;28;20043;-69
2022/07/04 02:14:55;;;;;;;5.00;3.05;;;;;;;23.58;42.21;99400.03;5053262;28;20404;-69
2022/07/04 02:17:21;;;;;;;7.07;2.95;;;;;;;23.62;42.25;99400.44;5052711;28;20048;-70
2022/07/04 02:19:47;;;;;;;9.43;3.35;;;;;;;23.64;42.27;99401.06;5066412;28;20048;-70
2022/07/04 02:22:14;;;;;;;16.45;3.53;;;;;;;23.66;42.18;99396.28;5072598;28;20043;-70
2022/07/04 02:24:39;;;;;;;4.82;3.25;;;;;;;23.68;42.19;99396.06;5072484;28;20040;-70
2022/07/04 02:27:05;;;;;;;8.52;3.95;;;;;;;23.66;42.55;99396.28;5072698;28;20032;-70
2022/07/04 02:29:31;;;;;;;7.45;3.88;;;;;;;23.75;42.42;99407.69;5053022;28;20037;-70
2022/07/04 02:31:57;;;;;;;6.25;3.25;;;;;;;23.92;42.24;99402.66;5056310;28;20032;-70
2022/07/04 02:34:23;;;;;;;5.78;3.58;;;;;;;24.14;42.04;99407.84;5070893;28;20039;-70
2022/07/04 02:36:48;;;;;;;8.00;3.47;;;;;;;24.33;41.78;99415.03;5072381;28;20040;-70
2022/07/04 02:39:13;;;;;;;11.43;3.40;;;;;;;24.42;41.90;99412.09;5072762;28;20024;-70
2022/07/04 02:41:39;;;;;;;7.05;3.35;;;;;;;24.42;41.82;99401.28;5072928;28;20462;-70
2022/07/04 02:44:04;;;;;;;14.23;4.25;;;;;;;24.38;42.05;99401.69;5071676;28;20036;-70
2022/07/04 02:46:32;;;;;;;7.07;3.75;;;;;;;24.32;42.08;99405.28;5072552;28;20086;-70
2022/07/04 02:48:58;;;;;;;7.97;3.35;;;;;;;24.30;42.11;99417.31;5072465;28;20118;-70
2022/07/04 02:51:24;;;;;;;9.55;3.65;;;;;;;24.29;42.17;99410.25;5070275;28;20025;-70
2022/07/04 02:53:49;;;;;;;8.27;3.75;;;;;;;24.23;42.24;99412.78;5072231;28;20040;-70
2022/07/04 02:56:15;;;;;;;9.55;3.70;;;;;;;24.23;42.02;99409.25;5072559;28;20024;-69
2022/07/04 02:58:40;;;;;;;8.20;4.10;;;;;;;24.24;42.50;99410.91;5072958;28;20077;-69
2022/07/04 03:01:06;;;;;;;10.95;4.53;;;;;;;24.22;42.05;99416.53;5072680;28;20454;-69
2022/07/04 03:03:31;;;;;;;7.03;4.13;;;;;;;24.22;41.82;99407.59;5072646;28;20039;-68
2022/07/04 03:05:57;;;;;;;7.28;3.90;;;;;;;24.27;41.75;99410.47;5070274;28;20077;-68
2022/07/04 03:08:22;;;;;;;11.02;4.80;;;;;;;24.31;41.88;99413.59;5072167;28;20099;-69
2022/07/04 03:10:51;;;;;;;9.20;3.58;;;;;;;24.37;41.81;99410.84;5058698;28;20102;-69
2022/07/04 03:13:17;;;;;;;11.88;5.03;;;;;;;24.56;41.22;99410.97;5067307;28;20036;-69
2022/07/04 03:15:43;;;;;;;14.77;4.10;;;;;;;24.73;40.88;99410.50;5076286;28;20025;-70
2022/07/04 03:18:08;;;;;;;8.85;4.57;;;;;;;25.03;40.84;99409.91;5069897;28;20587;-69
2022/07/04 03:20:34;;;;;;;8.68;3.83;;;;;;;25.41;39.92;99408.97;5065204;28;20170;-70
2022/07/04 03:23:00;;;;;;;17.15;4.68;;;;;;;25.81;39.43;99405.09;5075534;28;20036;-70
2022/07/04 03:25:25;;;;;;;21.77;4.88;;;;;;;26.17;39.29;99414.31;5075646;28;20028;-70
2022/07/04 03:27:50;;;;;;;5.90;4.18;;;;;;;26.39;38.89;99416.56;5076001;28;20082;-70
2022/07/04 03:30:16;;;;;;;10.45;5.20;;;;;;;26.59;38.40;99419.00;5074351;28;20036;-69
2022/07/04 03:32:41;;;;;;;12.10;5.10;;;;;;;26.82;37.83;99420.19;5076043;28;20452;-70
2022/07/04 03:35:07;;;;;;;13.52;4.78;;;;;;;27.00;37.38;99417.41;5074782;28;20040;-70
2022/07/04 03:37:32;;;;;;;9.13;4.70;;;;;;;26.97;37.42;99412.44;5075414;28;20060;-70
2022/07/04 03:39:58;;;;;;;14.98;4.95;;;;;;;26.90;37.42;99419.84;5075829;28;20047;-70
2022/07/04 03:42:23;;;;;;;7.97;5.07;;;;;;;26.84;37.45;99418.09;5074104;28;20033;-70
2022/07/04 03:44:49;;;;;;;15.20;4.93;;;;;;;26.77;37.61;99429.81;5076269;28;20044;-70
2022/07/04 03:47:14;;;;;;;12.35;4.22;;;;;;;26.79;37.64;99416.88;5075046;28;20070;-68
2022/07/04 03:49:40;;;;;;;10.02;4.55;;;;;;;26.88;37.42;99424.69;5075513;28;20037;-69
2022/07/04 03:52:06;;;;;;;7.05;4.90;;;;;;;26.88;37.50;99425.53;5073600;28;20038;-71
2022/07/04 03:54:32;;;;;;;7.95;4.13;;;;;;;26.93;37.35;99428.34;5075866;28;20483;-70
2022/07/04 03:56:57;;;;;;;7.80;4.50;;;;;;;27.07;36.93;99429.00;5075284;28;20024;-70
2022/07/04 03:59:23;;;;;;;5.68;3.75;;;;;;;27.18;36.69;99418.38;5075827;28;20033;-70
2022/07/04 04:01:48;;;;;;;12.75;5.45;;;;;;;27.17;36.73;99422.16;5073619;28;20040;-69
2022/07/04 04:06:58;;;;;;;19.02;5.55;;;;;;;27.00;37.21;99419.28;5075238;28;20059;-70
2022/07/04 04:09:24;;;;;;;10.43;3.90;;;;;;;26.95;37.13;99415.38;5065350;28;20028;-70
2022/07/04 04:11:50;;;;;;;8.50;4.68;;;;;;;26.94;37.31;99423.78;5073204;28;20059;-69
2022/07/04 04:14:16;;;;;;;9.85;4.00;;;;;;;26.89;37.24;99420.91;5075288;28;20490;-70
2022/07/04 04:16:42;;;;;;;8.05;4.30;;;;;;;26.83;37.72;99424.56;5074972;28;20056;-70
2022/07/04 04:19:11;;;;;;;9.60;4.55;;;;;;;26.72;38.05;99429.66;5074626;28;20036;-70
2022/07/04 04:21:37;;;;;;;6.60;5.05;;;;;;;26.66;38.29;99425.19;5074369;28;20016;-70
2022/07/04 04:24:03;;;;;;;12.75;5.13;;;;;;;26.59;38.56;99425.28;5073572;28;20036;-71
2022/07/04 04:26:30;;;;;;;8.32;5.15;;;;;;;26.56;38.73;99427.59;5075252;28;20506;-69
2022/07/04 04:28:56;;;;;;;19.35;5.03;;;;;;;26.47;39.09;99424.41;5074867;28;20032;-70
2022/07/04 04:31:21;;;;;;;10.57;4.72;;;;;;;26.41;39.13;99419.88;5074186;28;20421;-70
2022/07/04 04:33:47;;;;;;;6.25;4.07;;;;;;;26.39;39.38;99421.97;5073169;28;20037;-70
2022/07/04 04:36:13;;;;;;;11.10;5.35;;;;;;;26.39;39.72;99424.69;5074808;28;20035;-69
2022/07/04 04:38:38;;;;;;;6.72;4.40;;;;;;;26.53;39.22;99414.50;5074405;28;20037;-69
2022/07/04 04:41:04;;;;;;;7.45;4.78;;;;;;;26.89;38.95;99420.91;5074913;28;20395;-70
2022/07/04 04:43:29;;;;;;;14.35;5.10;;;;;;;27.30;38.35;99421.13;5072596;28;20033;-70
2022/07/04 04:45:55;;;;;;;8.82;4.10;;;;;;;27.72;37.68;99421.06;5074994;28;20032;-69
2022/07/04 04:48:20;;;;;;;11.68;4.63;;;;;;;28.14;36.93;99425.53;5074620;28;20028;-69
2022/07/04 04:50:46;;;;;;;8.65;5.32;;;;;;;28.48;36.76;99429.22;5074737;28;20462;-69
2022/07/04 04:53:12;;;;;;;7.35;4.50;;;;;;;28.71;36.05;99426.66;5072937;28;20036;-69
2022/07/04 04:55:38;;;;;;;8.75;4.85;;;;;;;28.86;35.96;99432.41;5074434;28;20123;-70
2022/07/04 04:58:03;;;;;;;8.07;4.78;;;;;;;29.10;35.70;99426.81;5073873;28;20534;-71
2022/07/04 05:00:29;;;;;;;12.38;4.68;;;;;;;29.27;35.04;99437.72;5072929;28;20040;-70
2022/07/04 05:02:54;;;;;;;13.05;5.32;;;;;;;29.44;35.22;99434.22;5074348;28;20028;-70
2022/07/04 05:05:19;;;;;;;9.20;4.50;;;;;;;29.58;35.15;99442.88;5072705;28;20041;-70
2022/07/04 05:07:45;;;;;;;7.70;5.55;;;;;;;29.65;34.75;99443.53;5073993;28;20040;-70
2022/07/04 05:10:11;;;;;;;12.93;5.07;;;;;;;29.75;34.64;99434.69;5074132;28;20079;-70
2022/07/04 05:12:36;;;;;;;7.45;4.20;;;;;;;29.84;34.02;99444.91;5074327;28;20054;-71
2022/07/04 05:15:02;;;;;;;11.23;4.85;;;;;;;29.92;33.92;99442.84;5072468;28;20085;-70
2022/07/04 05:17:28;;;;;;;12.05;4.85;;;;;;;30.03;34.12;99436.47;5073936;28;20396;-70
2022/07/04 05:19:53;;;;;;;7.00;4.50;;;;;;;30.12;34.03;99431.41;5073934;28;20495;-71
2022/07/04 05:22:19;;;;;;;6.30;4.43;;;;;;;30.19;33.70;99432.03;5073717;28;20040;-69
2022/07/04 05:24:44;;;;;;;25.92;5.63;;;;;;;30.16;33.73;99431.72;5074120;28;20097;-71
2022/07/04 05:27:10;;;;;;;9.23;4.88;;;;;;;30.14;33.32;99430.06;5074182;28;20036;-70
2022/07/04 05:29:35;;;;;;;8.93;4.38;;;;;;;30.22;33.47;99428.00;5073002;28;20028;-70
2022/07/04 05:32:01;;;;;;;13.20;4.50;;;;;;;30.26;33.21;99426.38;5072759;28;20036;-70
2022/07/04 05:34:26;;;;;;;9.85;4.78;;;;;;;30.26;33.37;99421.78;5071784;28;20056;-70
2022/07/04 05:36:54;;;;;;;8.15;4.10;;;;;;;30.11;33.69;99424.31;5069458;28;20389;-71
2022/07/04 05:39:20;;;;;;;11.85;4.40;;;;;;;30.11;33.33;99425.13;5072841;28;20033;-71
2022/07/04 05:41:45;;;;;;;7.25;4.43;;;;;;;30.07;33.53;99423.16;5071471;28;20041;-71
2022/07/04 05:44:11;;;;;;;7.70;3.83;;;;;;;29.98;33.79;99420.88;5073224;28;20035;-71
2022/07/04 05:46:36;;;;;;;5.78;3.80;;;;;;;29.98;33.17;99420.03;5073210;28;20029;-70
2022/07/04 05:49:01;;;;;;;6.45;4.15;;;;;;;30.07;33.15;99429.41;5073417;28;20041;-71
2022/07/04 05:51:27;;;;;;;7.45;3.85;;;;;;;30.12;33.56;99421.31;5071239;28;20116;-71
2022/07/04 05:53:52;;;;;;;5.28;3.85;;;;;;;30.17;33.18;99422.47;5073232;28;20033;-71
2022/07/04 05:56:18;;;;;;;6.55;4.15;;;;;;;30.20;32.97;99425.50;5073534;28;20028;-72
2022/07/04 05:58:43;;;;;;;7.15;4.60;;;;;;;30.13;33.27;99428.41;5072745;28;20483;-70
2022/07/04 06:01:09;;;;;;;5.75;4.07;;;;;;;30.14;33.48;99424.63;5071333;28;20495;-71
2022/07/04 06:03:37;;;;;;;5.10;3.72;;;;;;;30.16;32.71;99420.81;5072685;28;20387;-71
2022/07/04 06:06:04;;;;;;;8.40;3.85;;;;;;;30.11;33.15;99418.84;5066746;28;20071;-70
2022/07/04 06:08:29;;;;;;;6.15;3.67;;;;;;;30.06;33.07;99422.34;5072308;28;20182;-70
2022/07/04 06:10:55;;;;;;;10.75;4.50;;;;;;;30.02;33.18;99420.34;5069305;28;20122;-70
2022/07/04 06:13:21;;;;;;;4.75;3.97;;;;;;;29.99;33.47;99425.25;5068994;28;20479;-70
2022/07/04 06:15:46;;;;;;;7.28;3.75;;;;;;;29.96;33.26;99431.22;5053203;28;20455;-70
2022/07/04 06:18:12;;;;;;;10.60;3.88;;;;;;;29.84;33.62;99417.63;5057316;28;20092;-70
2022/07/04 06:20:39;;;;;;;6.80;4.15;;;;;;;29.75;33.99;99421.88;5072632;28;20040;-70
2022/07/04 06:23:05;;;;;;;5.68;3.53;;;;;;;29.69;33.85;99422.88;5070919;28;20380;-69
2022/07/04 06:25:31;;;;;;;5.50;3.47;;;;;;;29.59;33.85;99422.72;5072161;28;20471;-71
2022/07/04 06:27:58;;;;;;;4.28;3.53;;;;;;;29.40;34.48;99425.72;5070007;28;20131;-70
2022/07/04 06:30:23;;;;;;;8.48;3.60;;;;;;;29.18;34.83;99429.16;5070736;28;20062;-71
2022/07/04 06:32:51;;;;;;;8.52;3.90;;;;;;;28.95;34.92;99423.84;5072030;28;20032;-71
2022/07/04 06:38:09;;;;;;;5.40;3.78;;;;;;;28.64;35.36;99432.25;5070923;28;20082;-71
2022/07/04 06:40:36;;;;;;;5.85;4.25;;;;;;;28.58;35.37;99428.59;5069151;28;20055;-71
2022/07/04 06:43:01;;;;;;;8.70;3.85;;;;;;;28.52;35.39;99421.41;5070427;28;20032;-71
2022/07/04 06:45:27;;;;;;;7.43;3.28;;;;;;;28.48;35.60;99420.22;5072081;28;20040;-71
2022/07/04 06:47:52;;;;;;;8.50;4.13;;;;;;;28.46;35.94;99422.34;5071688;28;20037;-72
2022/07/04 06:50:18;;;;;;;6.07;4.22;;;;;;;28.45;35.72;99420.72;5070222;28;21403;-71
2022/07/04 06:52:44;;;;;;;4.03;3.60;;;;;;;28.43;35.65;99423.66;5071056;28;20024;-70
2022/07/04 06:55:10;;;;;;;5.30;3.55;;;;;;;28.41;36.17;99414.09;5067562;28;20112;-71
2022/07/04 06:57:36;;;;;;;5.57;3.60;;;;;;;28.38;36.35;99420.03;5071907;28;20111;-71
2022/07/04 07:00:02;;;;;;;6.07;3.80;;;;;;;28.32;35.99;99428.06;5068613;28;20499;-71
2022/07/04 07:02:28;;;;;;;9.93;4.40;;;;;;;28.27;35.97;99419.00;5069225;28;20513;-70
2022/07/04 07:04:57;;;;;;;5.03;3.58;;;;;;;28.21;36.06;99419.97;5071091;28;20060;-71
2022/07/04 07:07:24;;;;;;;5.82;3.55;;;;;;;28.18;36.38;99415.81;5057295;28;20403;-70
2022/07/04 07:09:54;;;;;;;6.85;4.22;;;;;;;28.20;35.81;99415.59;5057305;28;20415;-70
2022/07/04 07:12:20;;;;;;;7.15;4.30;;;;;;;28.15;35.97;99413.59;5070078;28;20349;-70
2022/07/04 07:14:45;;;;;;;5.53;3.42;;;;;;;28.17;35.91;99411.44;5070791;28;20028;-71
2022/07/04 07:17:11;;;;;;;6.60;3.67;;;;;;;28.17;35.91;99414.16;5068377;28;20458;-71
2022/07/04 07:19:36;;;;;;;7.95;3.55;;;;;;;28.16;35.89;99407.09;5068278;28;20545;-71
2022/07/04 07:22:02;;;;;;;6.40;3.85;;;;;;;28.16;36.00;99413.34;5070515;28;20506;-70
2022/07/04 07:24:30;;;;;;;6.00;3.95;;;;;;;28.14;35.68;99409.22;5069325;28;20043;-70
2022/07/04 07:26:56;;;;;;;6.38;3.55;;;;;;;28.14;35.68;99411.94;5069936;28;20035;-70
2022/07/04 07:29:22;;;;;;;9.13;3.70;;;;;;;28.14;35.43;99410.03;5069761;28;20112;-69
2022/07/04 07:31:47;;;;;;;5.63;3.88;;;;;;;28.15;35.41;99405.44;5072137;28;20040;-71
2022/07/04 07:34:13;;;;;;;4.85;3.63;;;;;;;28.12;35.55;99403.19;5072283;28;20044;-72
2022/07/04 07:36:39;;;;;;;9.38;3.90;;;;;;;28.13;35.66;99413.00;5071098;28;20043;-71
2022/07/04 07:39:04;;;;;;;10.48;3.92;;;;;;;28.11;35.55;99412.41;5072150;28;20044;-72
2022/07/04 07:41:30;;;;;;;5.95;3.35;;;;;;;28.11;35.56;99406.97;5069738;28;20127;-72
2022/07/04 07:43:55;;;;;;;7.55;3.38;;;;;;;28.11;35.51;99404.25;5071669;28;20028;-72
2022/07/04 07:46:21;;;;;;;5.25;3.03;;;;;;;28.12;35.51;99400.47;5071206;28;20062;-71
2022/07/04 07:48:46;;;;;;;7.65;3.50;;;;;;;28.11;35.71;99401.53;5068377;28;20085;-71
2022/07/04 07:51:13;;;;;;;6.82;3.35;;;;;;;28.09;35.29;99401.75;5069058;28;20048;-72
2022/07/04 07:53:39;;;;;;;6.30;4.32;;;;;;;28.07;35.86;99400.31;5070165;28;20125;-72
2022/07/04 07:56:05;;;;;;;6.50;3.80;;;;;;;28.08;35.91;99413.69;5070503;28;20060;-71
2022/07/04 07:58:30;;;;;;;4.80;3.83;;;;;;;28.08;35.47;99410.97;5071253;28;20043;-71
2022/07/04 08:00:56;;;;;;;4.85;3.45;;;;;;;28.07;35.31;99403.03;5073451;28;20527;-71
2022/07/04 08:06:05;;;;;;;4.07;3.10;;;;;;;28.03;35.50;99398.06;5074693;28;20103;-71
2022/07/04 08:08:31;;;;;;;8.23;4.03;;;;;;;28.06;35.73;99415.81;5075355;28;20067;-72
2022/07/04 08:10:56;;;;;;;6.53;3.92;;;;;;;28.05;35.82;99411.44;5075359;28;20032;-73
2022/07/04 08:13:22;;;;;;;7.22;3.67;;;;;;;28.05;36.10;99403.28;5075065;28;20368;-72
2022/07/04 08:15:47;;;;;;;6.32;4.38;;;;;;;28.07;36.03;99411.19;5074999;28;20028;-71
2022/07/04 08:18:13;;;;;;;6.78;4.00;;;;;;;28.06;35.27;99407.66;5073209;28;20056;-72
2022/07/04 08:20:38;;;;;;;5.22;4.28;;;;;;;28.06;35.23;99406.81;5073964;28;20418;-71
2022/07/04 08:23:04;;;;;;;6.40;3.95;;;;;;;28.06;35.59;99407.66;5070641;28;20079;-71
2022/07/04 08:25:30;;;;;;;6.70;3.80;;;;;;;28.07;35.23;99411.19;5069699;28;20376;-71
2022/07/04 08:27:55;;;;;;;5.60;4.03;;;;;;;28.05;35.23;99410.59;5071503;28;20502;-70
2022/07/04 08:30:20;;;;;;;9.50;4.07;;;;;;;28.03;35.41;99414.38;5071802;28;20090;-69
2022/07/04 08:32:46;;;;;;;7.75;4.43;;;;;;;28.04;35.06;99409.78;5070597;28;20039;-72
2022/07/04 08:35:12;;;;;;;4.82;3.95;;;;;;;28.04;35.57;99407.06;5074308;28;20036;-72
2022/07/04 08:37:40;;;;;;;13.70;5.05;;;;;;;28.06;35.24;99406.81;5074425;28;20476;-72
2022/07/04 08:40:07;;;;;;;14.02;4.75;;;;;;;28.03;35.21;99398.06;5075073;28;20036;-71
2022/07/04 08:42:39;;;;;;;14.27;5.80;;;;;;;27.98;35.48;99408.88;5068370;28;20040;-69
2022/07/04 08:45:06;;;;;;;8.60;5.25;;;;;;;27.96;35.60;99397.41;5063815;28;20040;-66
2022/07/04 08:47:34;;;;;;;5.57;4.70;;;;;;;27.93;35.47;99397.06;5073441;28;20090;-69
2022/07/04 08:50:03;;;;;;;10.80;5.05;;;;;;;27.91;35.64;99399.19;5074872;28;20036;-70
2022/07/04 08:52:40;;;;;;;7.38;5.40;;;;;;;27.91;35.95;99396.47;5073225;28;20495;-69
2022/07/04 09:00:39;;;;;;;6.32;5.03;;;;;;;27.94;36.04;99394.09;5073266;28;20123;-69
2022/07/04 09:03:04;;;;;;;11.32;5.32;;;;;;;27.94;36.12;99394.09;5072373;28;20039;-69
2022/07/04 09:05:34;;;;;;;10.63;5.43;;;;;;;27.94;36.29;99399.53;5071386;28;20041;-69
2022/07/04 09:08:00;;;;;;;7.78;5.30;;;;;;;27.95;36.21;99394.91;5072484;28;20036;-70
2022/07/04 09:10:26;;;;;;;10.10;5.55;;;;;;;27.98;36.10;99397.16;5072741;28;20533;-71
2022/07/04 09:12:52;;;;;;;5.70;5.03;;;;;;;27.98;35.98;99392.53;5072947;28;20127;-71
2022/07/04 09:15:19;;;;;;;7.03;5.63;;;;;;;28.01;36.20;99397.47;5073422;28;20575;-70
2022/07/04 09:17:46;;;;;;;8.02;5.65;;;;;;;27.98;36.15;99395.28;5072244;28;20053;-69
2022/07/04 09:20:13;;;;;;;8.13;4.95;;;;;;;27.94;35.97;99402.25;5071458;28;20143;-70
2022/07/04 09:22:39;;;;;;;5.95;4.95;;;;;;;27.90;35.68;99403.78;5072621;28;20039;-69
2022/07/04 09:25:08;;;;;;;7.55;5.50;;;;;;;27.87;35.52;99396.09;5079131;28;20032;-69
2022/07/04 09:27:40;;;;;;;7.18;4.80;;;;;;;27.90;36.02;99386.66;5082162;28;20115;-68
2022/07/04 09:30:07;;;;;;;6.97;4.78;;;;;;;27.91;35.79;99389.13;5069995;28;20032;-69
2022/07/04 09:32:40;;;;;;;7.50;4.80;;;;;;;27.94;35.75;99396.00;5070351;28;20089;-65
2022/07/04 09:35:21;;;;;;;6.30;4.88;;;;;;;27.95;35.45;99390.31;5061917;28;20031;-67
2022/07/04 09:37:51;;;;;;;10.75;4.70;;;;;;;27.95;34.86;99389.47;5070369;28;20115;-68
2022/07/04 09:40:27;;;;;;;5.88;4.72;;;;;;;27.95;35.07;99376.72;5072117;28;20495;-68
2022/07/04 09:42:55;;;;;;;11.95;4.57;;;;;;;27.98;35.20;99378.94;5070583;28;20035;-69
2022/07/04 09:45:24;;;;;;;7.05;5.18;;;;;;;27.98;35.05;99378.09;5067998;28;20032;-67
2022/07/04 09:47:54;;;;;;;8.55;4.93;;;;;;;27.99;35.19;99379.75;5067911;28;20127;-67
2022/07/04 09:50:21;;;;;;;5.95;4.35;;;;;;;28.01;34.99;99380.34;5069600;28;20568;-67
2022/07/04 09:52:53;;;;;;;5.18;4.65;;;;;;;28.01;35.43;99383.88;5063821;28;20071;-67
2022/07/04 09:55:32;;;;;;;10.75;5.15;;;;;;;28.00;35.31;99378.69;5068481;28;20098;-66
2022/07/04 09:58:06;;;;;;;6.10;4.43;;;;;;;27.99;35.01;99379.75;5069457;28;20036;-67
2022/07/04 10:00:33;;;;;;;6.32;4.38;;;;;;;28.01;35.40;99378.44;5072704;28;20048;-71
2022/07/04 10:03:21;;;;;;;6.05;5.15;;;;;;;28.03;35.39;99370.06;5070084;28;20518;-66
2022/07/04 10:06:08;;;;;;;7.00;4.78;;;;;;;28.02;35.46;99373.84;5072184;28;20107;-68
2022/07/04 10:08:34;;;;;;;10.00;5.63;;;;;;;27.96;35.71;99370.19;5068254;28;20119;-67
2022/07/04 10:11:02;;;;;;;7.25;4.60;;;;;;;27.96;35.68;99362.03;5066465;28;20036;-66
2022/07/04 10:13:28;;;;;;;10.38;4.60;;;;;;;27.98;35.85;99357.19;5072669;28;20394;-68
2022/07/04 10:15:54;;;;;;;7.43;5.00;;;;;;;27.99;35.67;99361.56;5093480;28;20028;-68
2022/07/04 10:18:22;;;;;;;8.38;5.47;;;;;;;27.99;35.52;99352.56;5092939;28;20109;-68
2022/07/04 10:20:49;;;;;;;7.80;4.85;;;;;;;27.99;35.61;99350.69;5093014;28;20044;-68
2022/07/04 10:23:17;;;;;;;5.75;4.97;;;;;;;28.01;35.59;99362.13;5093431;28;20046;-68
2022/07/04 10:25:46;;;;;;;5.95;4.95;;;;;;;28.01;35.72;99353.16;5093361;28;20035;-68
2022/07/04 10:28:12;;;;;;;5.47;4.65;;;;;;;28.01;35.65;99345.81;5077529;28;20037;-68
2022/07/04 10:30:40;;;;;;;5.35;4.85;;;;;;;28.02;35.27;99346.66;5073073;28;20479;-67
2022/07/04 10:33:09;;;;;;;11.98;4.00;;;;;;;28.04;34.76;99349.97;5072350;28;20107;-68
2022/07/04 10:35:55;;;;;;;6.57;4.88;;;;;;;28.08;34.92;99351.16;5072735;28;20392;-68
2022/07/04 10:38:23;;;;;;;6.03;4.07;;;;;;;28.07;34.51;99346.78;5072693;28;20082;-68
2022/07/04 10:40:50;;;;;;;5.82;4.40;;;;;;;28.11;34.68;99349.84;5072666;28;20483;-68
2022/07/04 10:43:48;;;;;;;6.10;4.25;;;;;;;28.09;34.11;99352.81;5071986;28;20032;-68
2022/07/04 10:46:14;;;;;;;7.43;4.60;;;;;;;28.08;33.94;99345.72;5052152;28;20044;-67
2022/07/04 10:48:49;;;;;;;4.60;4.20;;;;;;;28.12;34.24;99348.78;5072561;28;20040;-67
2022/07/04 10:51:15;;;;;;;4.70;3.67;;;;;;;28.14;33.81;99341.22;5072701;28;20115;-67
2022/07/04 10:54:02;;;;;;;4.35;3.95;;;;;;;28.15;33.57;99340.97;5072206;28;20575;-67
2022/07/04 10:56:27;;;;;;;7.00;4.30;;;;;;;28.15;33.55;99342.88;5072268;28;20587;-67
2022/07/04 10:58:55;;;;;;;4.43;4.00;;;;;;;28.13;33.75;99336.84;5072750;28;20071;-67
2022/07/04 11:01:20;;;;;;;7.20;3.72;;;;;;;28.11;33.86;99317.22;5072706;28;20075;-67
2022/07/04 11:03:48;;;;;;;6.90;4.43;;;;;;;28.09;33.94;99328.31;5072858;28;20040;-68
2022/07/04 11:06:55;;;;;;;8.68;4.38;;;;;;;28.10;33.96;99338.13;5072380;28;20137;-68
2022/07/04 11:09:23;;;;;;;5.35;4.80;;;;;;;28.09;34.42;99331.03;5072612;28;20040;-68
2022/07/04 11:11:51;;;;;;;5.07;4.22;;;;;;;28.10;34.13;99329.97;5072581;28;20032;-68
2022/07/04 11:14:30;;;;;;;4.10;3.67;;;;;;;28.14;34.28;99324.91;5072727;28;20457;-67
2022/07/04 11:16:56;;;;;;;6.10;4.50;;;;;;;28.13;34.01;99324.06;5072418;28;20064;-67
2022/07/04 11:19:22;;;;;;;5.70;4.53;;;;;;;28.16;34.21;99317.34;5072535;28;20032;-67
2022/07/04 11:21:48;;;;;;;9.23;4.18;;;;;;;28.19;34.50;99318.72;5072149;28;20036;-66
2022/07/04 11:24:14;;;;;;;8.32;4.05;;;;;;;28.19;34.45;99311.38;5072166;28;20044;-67
2022/07/04 11:26:39;;;;;;;8.40;3.65;;;;;;;28.21;34.12;99316.59;5072157;28;20040;-67
2022/07/04 11:29:05;;;;;;;3.95;3.55;;;;;;;28.21;34.03;99319.31;5072452;28;20040;-67
2022/07/04 11:31:42;;;;;;;6.38;4.35;;;;;;;28.20;33.84;99310.31;5072145;28;20032;-67
2022/07/04 11:34:09;;;;;;;5.50;3.97;;;;;;;28.20;33.89;99304.88;5076176;28;20032;-67
2022/07/04 11:36:34;;;;;;;4.50;4.10;;;;;;;28.24;33.80;99306.06;5075907;28;20036;-68
2022/07/04 11:39:04;;;;;;;6.25;4.38;;;;;;;28.28;33.52;99303.66;5075909;28;20082;-67
2022/07/04 11:47:20;;;;;;;6.32;4.13;;;;;;;28.28;33.40;99303.66;5076043;28;20449;-67
2022/07/04 11:49:54;;;;;;;7.43;4.55;;;;;;;28.29;33.38;99303.44;5076017;28;20038;-68
2022/07/04 11:52:24;;;;;;;5.05;3.70;;;;;;;28.33;33.34;99309.22;5075698;28;20059;-68
2022/07/04 11:54:51;;;;;;;4.88;4.43;;;;;;;28.33;33.79;99307.28;5076003;28;20447;-67